sensor_id;sensor_type;location;lat;lon;timestamp;pressure;altitude;pressure_sealevel;temperature;humidity
39309;BME280;26019;47.510;19.122;2023-01-25T00:01:47;101773.03;;;-0.62;100.00
39309;BME280;26019;47.510;19.122;2023-01-25T00:11:49;101788.78;;;-0.67;100.00
39309;BME280;26019;47.510;19.122;2023-01-25T00:21:56;101794.59;;;-0.55;100.00
39309;BME280;26019;47.510;19.122;2023-01-25T00:32:28;101792.09;;;-0.68;100.00
39309;BME280;26019;47.510;19.122;2023-01-25T00:42:38;101791.50;;;-0.78;100.00
39309;BME280;26019;47.510;19.122;2023-01-25T00:52:40;101788.75;;;-0.81;100.00
39309;BME280;26019;47.510;19.122;2023-01-25T01:02:45;101804.16;;;-0.91;100.00
39309;BME280;26019;47.510;19.122;2023-01-25T01:12:53;101809.94;;;-0.94;100.00
39309;BME280;26019;47.510;19.122;2023-01-25T01:22:55;101808.19;;;-0.95;100.00
39309;BME280;26019;47.510;19.122;2023-01-25T01:32:57;101808.16;;;-1.08;100.00
39309;BME280;26019;47.510;19.122;2023-01-25T01:43:15;101809.00;;;-1.21;100.00
39309;BME280;26019;47.510;19.122;2023-01-25T01:53:23;101804.53;;;-1.12;100.00
39309;BME280;26019;47.510;19.122;2023-01-25T02:03:28;101792.09;;;-1.34;100.00
39309;BME280;26019;47.510;19.122;2023-01-25T02:13:30;101787.22;;;-1.31;100.00
39309;BME280;26019;47.510;19.122;2023-01-25T02:24:00;101793.22;;;-1.17;100.00
39309;BME280;26019;47.510;19.122;2023-01-25T02:34:04;101779.47;;;-1.07;100.00
39309;BME280;26019;47.510;19.122;2023-01-25T02:44:12;101759.25;;;-0.92;100.00
39309;BME280;26019;47.510;19.122;2023-01-25T02:54:18;101761.59;;;-1.22;100.00
39309;BME280;26019;47.510;19.122;2023-01-25T03:04:26;101764.69;;;-1.26;100.00
39309;BME280;26019;47.510;19.122;2023-01-25T03:14:28;101751.59;;;-1.46;100.00
39309;BME280;26019;47.510;19.122;2023-01-25T03:24:31;101735.81;;;-1.28;100.00
39309;BME280;26019;47.510;19.122;2023-01-25T03:34:33;101747.06;;;-1.11;100.00
39309;BME280;26019;47.510;19.122;2023-01-25T03:44:36;101757.31;;;-1.10;100.00
39309;BME280;26019;47.510;19.122;2023-01-25T03:54:39;101747.50;;;-1.30;100.00
39309;BME280;26019;47.510;19.122;2023-01-25T04:04:42;101754.53;;;-1.40;100.00
39309;BME280;26019;47.510;19.122;2023-01-25T04:14:46;101744.50;;;-1.63;100.00
39309;BME280;26019;47.510;19.122;2023-01-25T04:24:47;101757.78;;;-1.93;100.00
39309;BME280;26019;47.510;19.122;2023-01-25T04:34:49;101754.84;;;-1.60;100.00
39309;BME280;26019;47.510;19.122;2023-01-25T04:44:51;101757.84;;;-1.27;100.00
39309;BME280;26019;47.510;19.122;2023-01-25T04:54:54;101758.09;;;-0.97;100.00
39309;BME280;26019;47.510;19.122;2023-01-25T05:04:57;101758.59;;;-0.89;100.00
39309;BME280;26019;47.510;19.122;2023-01-25T05:14:59;101756.91;;;-0.62;100.00
39309;BME280;26019;47.510;19.122;2023-01-25T05:25:02;101765.69;;;-0.43;100.00
39309;BME280;26019;47.510;19.122;2023-01-25T05:35:04;101761.19;;;-0.48;100.00
39309;BME280;26019;47.510;19.122;2023-01-25T05:45:09;101753.22;;;-0.67;100.00
39309;BME280;26019;47.510;19.122;2023-01-25T05:55:13;101758.09;;;-0.70;100.00
39309;BME280;26019;47.510;19.122;2023-01-25T06:05:16;101772.06;;;-0.91;100.00
39309;BME280;26019;47.510;19.122;2023-01-25T06:15:41;101778.56;;;-1.21;100.00
39309;BME280;26019;47.510;19.122;2023-01-25T06:25:43;101784.00;;;-1.42;100.00
39309;BME280;26019;47.510;19.122;2023-01-25T06:35:45;101797.50;;;-1.55;100.00
39309;BME280;26019;47.510;19.122;2023-01-25T06:45:47;101783.56;;;-1.48;100.00
39309;BME280;26019;47.510;19.122;2023-01-25T06:56:03;101795.38;;;-1.10;100.00
39309;BME280;26019;47.510;19.122;2023-01-25T07:06:08;101789.53;;;-0.82;100.00
39309;BME280;26019;47.510;19.122;2023-01-25T07:16:15;101792.66;;;-0.46;100.00
39309;BME280;26019;47.510;19.122;2023-01-25T07:26:18;101791.06;;;-0.30;100.00
39309;BME280;26019;47.510;19.122;2023-01-25T07:36:22;101792.94;;;-0.27;100.00
39309;BME280;26019;47.510;19.122;2023-01-25T07:46:34;101788.88;;;-0.10;100.00
39309;BME280;26019;47.510;19.122;2023-01-25T07:56:37;101797.75;;;0.25;100.00
39309;BME280;26019;47.510;19.122;2023-01-25T08:06:41;101789.22;;;0.53;100.00
39309;BME280;26019;47.510;19.122;2023-01-25T08:16:42;101790.38;;;0.88;100.00
39309;BME280;26019;47.510;19.122;2023-01-25T08:26:45;101782.72;;;1.18;100.00
39309;BME280;26019;47.510;19.122;2023-01-25T08:37:10;101775.00;;;1.96;100.00
39309;BME280;26019;47.510;19.122;2023-01-25T08:47:13;101779.03;;;1.59;100.00
39309;BME280;26019;47.510;19.122;2023-01-25T08:57:21;101768.19;;;2.12;100.00
39309;BME280;26019;47.510;19.122;2023-01-25T09:07:23;101768.34;;;2.15;100.00
39309;BME280;26019;47.510;19.122;2023-01-25T09:17:27;101759.81;;;1.98;100.00
39309;BME280;26019;47.510;19.122;2023-01-25T09:27:28;101763.59;;;2.39;100.00
39309;BME280;26019;47.510;19.122;2023-01-25T09:37:30;101768.16;;;2.79;100.00
39309;BME280;26019;47.510;19.122;2023-01-25T09:57:47;101735.13;;;3.19;100.00
39309;BME280;26019;47.510;19.122;2023-01-25T10:08:15;101714.75;;;3.58;100.00
39309;BME280;26019;47.510;19.122;2023-01-25T10:28:48;101690.28;;;3.63;100.00
39309;BME280;26019;47.510;19.122;2023-01-25T10:38:55;101677.66;;;3.48;100.00
39309;BME280;26019;47.510;19.122;2023-01-25T10:57:57;101655.47;;;3.86;100.00
39309;BME280;26019;47.510;19.122;2023-01-25T11:08:22;101652.97;;;3.88;100.00
39309;BME280;26019;47.510;19.122;2023-01-25T11:18:27;101633.13;;;4.23;100.00
39309;BME280;26019;47.510;19.122;2023-01-25T11:28:29;101606.72;;;4.24;100.00
39309;BME280;26019;47.510;19.122;2023-01-25T11:38:36;101588.81;;;4.45;100.00
39309;BME280;26019;47.510;19.122;2023-01-25T12:30:03;101521.19;;;3.96;100.00
39309;BME280;26019;47.510;19.122;2023-01-25T12:40:16;101511.50;;;3.89;100.00
39309;BME280;26019;47.510;19.122;2023-01-25T12:50:30;101496.88;;;4.08;100.00
39309;BME280;26019;47.510;19.122;2023-01-25T13:01:05;101477.59;;;4.16;100.00
